CheckWX is a tool to help pilots better visualize weather data.  It is not intended as a substitute for an official pre-flight weather briefing.

02:00:48 UTC

FAGG METAR
George Airport
George, South Africa
Current

26 mins ago

FAGG 240135Z AUTO 30005KT 9999 FEW004/// SCT007/// OVC010/// 18/18 Q1013
Observed
Feb-24 @ 01:35 UTC
Wind
  • 300° at 5 KTS
Visibility
10,000+ meters
Flight Rules
MVFR
Cloud Levels
  • Few at 400' AGL
  • Scattered at 700' AGL
  • Overcast at 1,000' AGL
Temperature
18°C / 64°F
Dewpoint
18°C / 64°F
Humidity
100%
Altimeter
29.91" Hg
Pressure
1012.92 hPa
Previous

36 mins ago

FAGG 240125Z AUTO 29005KT 9999 FEW001/// BKN007/// OVC010/// 18/18 Q1013
Observed
Feb-24 @ 01:25 UTC
Wind
  • 290° at 5 KTS
Visibility
10,000+ meters
Flight Rules
IFR
Cloud Levels
  • Few at 100' AGL
  • Broken at 700' AGL
  • Overcast at 1,000' AGL
Temperature
18°C / 64°F
Dewpoint
18°C / 64°F
Humidity
100%
Altimeter
29.91" Hg
Pressure
1012.92 hPa
Previous

1 hour ago

FAGG 240053Z AUTO 34005KT 4300 -RA BR FEW002/// OVC004/// 18/18 Q1013
Observed
Feb-24 @ 00:53 UTC
Wind
  • 340° at 5 KTS
Visibility
4,297 meters
Flight Rules
LIFR
Conditions
Light Rain, Mist
Cloud Levels
  • Few at 200' AGL
  • Overcast at 400' AGL
Temperature
18°C / 64°F
Dewpoint
18°C / 64°F
Humidity
100%
Altimeter
29.91" Hg
Pressure
1012.92 hPa